createdAt,value
2019-06-27T00:00:38.289Z,22.98
2019-06-27T00:03:07.911Z,22.95
2019-06-27T00:05:37.403Z,22.90
2019-06-27T00:08:06.889Z,22.85
2019-06-27T00:10:36.450Z,22.82
2019-06-27T00:13:05.914Z,22.77
2019-06-27T00:15:35.480Z,22.72
2019-06-27T00:18:04.973Z,22.67
2019-06-27T00:20:34.468Z,22.62
2019-06-27T00:23:03.964Z,22.57
2019-06-27T00:25:52.806Z,22.51
2019-06-27T00:28:22.295Z,22.46
2019-06-27T00:30:51.828Z,22.40
2019-06-27T00:33:21.317Z,22.35
2019-06-27T00:35:50.850Z,22.29
2019-06-27T00:38:20.361Z,22.23
2019-06-27T00:40:49.830Z,22.18
2019-06-27T00:43:19.374Z,22.12
2019-06-27T00:45:48.861Z,22.06
2019-06-27T00:48:37.682Z,22.02
2019-06-27T00:51:07.184Z,21.96
2019-06-27T00:53:56.019Z,21.89
2019-06-27T00:56:25.561Z,21.83
2019-06-27T00:58:55.032Z,21.76
2019-06-27T01:01:24.517Z,21.71
2019-06-27T01:03:53.992Z,21.66
2019-06-27T01:06:23.455Z,21.61
2019-06-27T01:08:52.944Z,21.57
2019-06-27T01:11:22.416Z,21.51
2019-06-27T01:13:51.909Z,21.45
2019-06-27T01:16:21.400Z,21.41
2019-06-27T01:18:50.859Z,21.36
2019-06-27T01:21:20.363Z,21.31
2019-06-27T01:23:49.897Z,21.26
2019-06-27T01:26:19.380Z,21.20
2019-06-27T01:28:48.879Z,21.16
2019-06-27T01:31:18.418Z,21.11
2019-06-27T01:33:47.909Z,21.07
2019-06-27T01:36:17.478Z,21.02
2019-06-27T01:38:46.962Z,21.00
2019-06-27T01:41:16.462Z,20.95
2019-06-27T01:43:45.938Z,20.90
2019-06-27T01:46:15.417Z,20.85
2019-06-27T01:48:44.921Z,20.81
2019-06-27T01:51:14.383Z,20.77
2019-06-27T01:53:43.884Z,20.73
2019-06-27T01:56:13.346Z,20.68
2019-06-27T01:58:42.848Z,20.64
2019-06-27T02:01:12.387Z,20.60
2019-06-27T02:03:41.977Z,20.56
2019-06-27T02:06:11.562Z,20.51
2019-06-27T02:08:41.033Z,20.46
2019-06-27T02:11:10.527Z,20.42
2019-06-27T02:13:40.034Z,20.39
2019-06-27T02:16:09.508Z,20.33
2019-06-27T02:18:38.992Z,20.29
2019-06-27T02:21:08.532Z,20.26
2019-06-27T02:23:38.054Z,20.21
2019-06-27T02:26:07.498Z,20.16
2019-06-27T02:28:36.964Z,20.12
2019-06-27T02:31:06.529Z,20.08
2019-06-27T02:33:36.010Z,20.03
2019-06-27T02:36:05.478Z,19.99
2019-06-27T02:38:34.981Z,19.94
2019-06-27T02:41:04.482Z,19.88
2019-06-27T02:43:34.179Z,19.83
2019-06-27T02:46:03.651Z,19.79
2019-06-27T02:48:33.203Z,19.74
2019-06-27T02:51:02.667Z,19.71
2019-06-27T02:53:32.154Z,19.66
2019-06-27T02:56:01.654Z,19.63
2019-06-27T02:58:32.527Z,19.58
2019-06-27T03:01:02.297Z,19.54
2019-06-27T03:03:31.803Z,19.51
2019-06-27T03:06:01.329Z,19.48
2019-06-27T03:08:30.818Z,19.44
2019-06-27T03:11:06.340Z,19.40
2019-06-27T03:13:35.839Z,19.36
2019-06-27T03:16:05.391Z,19.33
2019-06-27T03:18:34.862Z,19.30
2019-06-27T03:21:04.337Z,19.26
2019-06-27T03:23:33.830Z,19.23
2019-06-27T03:26:03.302Z,19.19
2019-06-27T03:28:51.070Z,19.16
2019-06-27T03:31:04.116Z,19.15
2019-06-27T03:33:33.615Z,19.12
2019-06-27T03:36:03.218Z,19.10
2019-06-27T03:38:33.114Z,19.06
2019-06-27T03:41:02.589Z,19.03
2019-06-27T03:43:32.085Z,19.01
2019-06-27T03:46:01.554Z,18.97
2019-06-27T03:48:31.125Z,18.95
2019-06-27T03:51:00.823Z,18.92
2019-06-27T03:53:30.306Z,18.89
2019-06-27T03:56:01.424Z,18.87
2019-06-27T03:58:30.921Z,18.85
2019-06-27T04:01:00.506Z,18.84
2019-06-27T04:03:30.079Z,18.81
2019-06-27T04:05:59.579Z,18.80
2019-06-27T04:08:29.120Z,18.77
2019-06-27T04:11:00.201Z,18.77
2019-06-27T04:13:29.688Z,18.75
2019-06-27T04:15:59.181Z,18.74
2019-06-27T04:18:28.717Z,18.73
2019-06-27T04:20:58.282Z,18.73
2019-06-27T04:23:27.933Z,18.72
2019-06-27T04:25:57.506Z,18.73
2019-06-27T04:28:26.982Z,18.73
2019-06-27T04:30:56.518Z,18.73
2019-06-27T04:33:26.090Z,18.73
2019-06-27T04:35:55.759Z,18.73
2019-06-27T04:38:25.327Z,18.73
2019-06-27T04:40:54.836Z,18.73
2019-06-27T04:43:24.346Z,18.73
2019-06-27T04:45:53.974Z,18.73
2019-06-27T04:48:23.475Z,18.73
2019-06-27T04:50:52.944Z,18.75
2019-06-27T04:53:22.527Z,18.75
2019-06-27T04:55:51.992Z,18.77
2019-06-27T04:58:21.571Z,18.77
2019-06-27T05:00:51.196Z,18.79
2019-06-27T05:03:20.754Z,18.79
2019-06-27T05:05:50.242Z,18.81
2019-06-27T05:08:19.812Z,18.80
2019-06-27T05:10:49.298Z,18.83
2019-06-27T05:13:18.794Z,18.85
2019-06-27T05:15:48.341Z,18.88
2019-06-27T05:18:17.832Z,18.93
2019-06-27T05:20:47.319Z,18.95
2019-06-27T05:23:16.807Z,18.99
2019-06-27T05:25:46.348Z,19.02
2019-06-27T05:28:15.821Z,19.06
2019-06-27T05:30:45.313Z,19.11
2019-06-27T05:33:15.074Z,19.15
2019-06-27T05:35:44.560Z,19.19
2019-06-27T05:38:14.108Z,19.23
2019-06-27T05:40:43.581Z,19.25
2019-06-27T05:43:13.741Z,19.27
2019-06-27T05:45:43.577Z,19.28
2019-06-27T05:48:13.043Z,19.29
2019-06-27T05:50:42.527Z,19.31
2019-06-27T05:53:12.268Z,19.30
2019-06-27T05:55:41.884Z,19.32
2019-06-27T05:58:11.352Z,19.33
2019-06-27T06:00:40.903Z,19.34
2019-06-27T06:03:10.369Z,19.35
2019-06-27T06:05:39.852Z,19.37
2019-06-27T06:08:09.411Z,19.37
2019-06-27T06:10:38.911Z,19.40
2019-06-27T06:13:08.379Z,19.42
2019-06-27T06:15:37.950Z,19.45
2019-06-27T06:18:08.492Z,19.49
2019-06-27T06:20:37.948Z,19.52
2019-06-27T06:23:08.747Z,19.57
2019-06-27T06:25:38.244Z,19.61
2019-06-27T06:28:07.816Z,19.65
2019-06-27T06:30:44.210Z,19.70
2019-06-27T06:33:08.562Z,19.74
2019-06-27T06:35:38.129Z,19.77
2019-06-27T06:38:07.596Z,19.81
2019-06-27T06:40:37.106Z,19.85
2019-06-27T06:43:06.655Z,19.91
2019-06-27T06:45:36.139Z,19.96
2019-06-27T06:48:05.670Z,20.02
2019-06-27T06:50:35.125Z,20.07
2019-06-27T06:53:04.624Z,20.13
2019-06-27T06:55:34.178Z,20.16
2019-06-27T06:58:03.682Z,20.22
2019-06-27T07:00:33.216Z,20.27
2019-06-27T07:03:02.742Z,20.33
2019-06-27T07:05:32.204Z,20.37
2019-06-27T07:08:01.722Z,20.43
2019-06-27T07:10:31.227Z,20.48
2019-06-27T07:13:00.656Z,20.54
2019-06-27T07:15:30.202Z,20.58
2019-06-27T07:17:59.827Z,20.63
2019-06-27T07:20:29.315Z,20.69
2019-06-27T07:22:59.061Z,20.75
2019-06-27T07:25:28.609Z,20.82
2019-06-27T07:27:58.106Z,20.90
2019-06-27T07:30:27.577Z,20.96
2019-06-27T07:32:57.196Z,21.03
2019-06-27T07:35:26.795Z,21.12
2019-06-27T07:37:56.264Z,21.20
2019-06-27T07:40:25.759Z,21.27
2019-06-27T07:42:55.227Z,21.36
2019-06-27T07:45:24.794Z,21.43
2019-06-27T07:47:54.279Z,21.51
2019-06-27T07:50:23.801Z,21.60
2019-06-27T07:52:53.303Z,21.67
2019-06-27T07:55:24.534Z,21.74
2019-06-27T07:57:54.054Z,21.82
2019-06-27T08:00:24.857Z,21.89
2019-06-27T08:02:54.343Z,21.95
2019-06-27T08:05:23.980Z,22.01
2019-06-27T08:07:53.504Z,22.08
2019-06-27T08:10:23.061Z,22.15
2019-06-27T08:12:52.544Z,22.22
2019-06-27T08:15:22.181Z,22.27
2019-06-27T08:17:51.648Z,22.34
2019-06-27T08:20:21.459Z,22.43
2019-06-27T08:22:50.913Z,22.51
2019-06-27T08:25:20.802Z,22.59
2019-06-27T08:27:50.293Z,22.66
2019-06-27T08:30:20.042Z,22.74
2019-06-27T08:32:49.519Z,22.82
2019-06-27T08:35:19.071Z,22.88
2019-06-27T08:37:48.763Z,22.95
2019-06-27T08:40:19.273Z,23.03
2019-06-27T08:42:48.794Z,23.12
2019-06-27T08:45:18.342Z,23.20
2019-06-27T08:47:47.803Z,23.28
2019-06-27T08:50:19.294Z,23.36
2019-06-27T08:52:48.845Z,23.44
2019-06-27T08:55:18.398Z,23.52
2019-06-27T08:57:47.916Z,23.60
2019-06-27T09:00:17.888Z,23.67
2019-06-27T09:02:47.345Z,23.78
2019-06-27T09:05:17.184Z,23.87
2019-06-27T09:07:46.689Z,23.93
2019-06-27T09:10:17.290Z,24.05
2019-06-27T09:12:46.918Z,24.14
2019-06-27T09:15:16.937Z,24.23
2019-06-27T09:17:46.472Z,24.33
2019-06-27T09:20:16.911Z,24.42
2019-06-27T09:22:46.465Z,24.49
2019-06-27T09:25:16.130Z,24.59
2019-06-27T09:27:45.820Z,24.67
2019-06-27T09:30:16.398Z,24.74
2019-06-27T09:32:45.877Z,24.84
2019-06-27T09:35:16.583Z,24.94
2019-06-27T09:37:47.027Z,25.04
2019-06-27T09:40:16.875Z,25.16
2019-06-27T09:42:46.370Z,25.26
2019-06-27T09:45:17.840Z,25.38
2019-06-27T09:47:47.309Z,25.50
2019-06-27T09:50:20.600Z,25.60
2019-06-27T09:52:48.416Z,25.69
2019-06-27T09:55:18.113Z,25.77
2019-06-27T09:57:47.664Z,25.85
2019-06-27T10:00:17.733Z,25.95
2019-06-27T10:02:59.736Z,26.03
2019-06-27T10:05:29.240Z,26.11
2019-06-27T10:07:58.725Z,26.19
2019-06-27T10:10:28.190Z,26.25
2019-06-27T10:12:58.253Z,26.31
2019-06-27T10:15:27.729Z,26.36
2019-06-27T10:17:57.223Z,26.41
2019-06-27T10:20:26.763Z,26.46
2019-06-27T10:22:56.224Z,26.51
2019-06-27T10:25:25.910Z,26.57
2019-06-27T10:27:55.378Z,26.62
2019-06-27T10:30:25.980Z,26.68
2019-06-27T10:32:59.785Z,26.73
2019-06-27T10:35:26.740Z,26.79
2019-06-27T10:37:56.198Z,26.82
2019-06-27T10:40:25.854Z,26.87
2019-06-27T10:42:55.402Z,26.92
2019-06-27T10:45:25.000Z,26.97
2019-06-27T10:47:54.545Z,27.03
2019-06-27T10:50:24.090Z,27.10
2019-06-27T10:52:53.635Z,27.18
2019-06-27T10:55:23.201Z,27.28
2019-06-27T10:57:52.670Z,27.35
2019-06-27T11:00:23.107Z,27.44
2019-06-27T11:02:52.572Z,27.50
2019-06-27T11:05:22.130Z,27.57
2019-06-27T11:07:51.690Z,27.63
2019-06-27T11:10:21.242Z,27.69
2019-06-27T11:12:50.824Z,27.74
2019-06-27T11:15:20.506Z,27.80
2019-06-27T11:17:50.022Z,27.87
2019-06-27T11:20:19.815Z,27.93
2019-06-27T11:22:49.283Z,28.00
2019-06-27T11:25:18.890Z,28.07
2019-06-27T11:27:48.415Z,28.11
2019-06-27T11:30:18.212Z,28.17
2019-06-27T11:32:47.697Z,28.22
2019-06-27T11:35:17.234Z,28.28
2019-06-27T11:37:46.749Z,28.34
2019-06-27T11:40:17.209Z,28.39
2019-06-27T11:42:46.714Z,28.44
2019-06-27T11:45:16.603Z,28.48
2019-06-27T11:47:46.212Z,28.53
2019-06-27T11:50:16.035Z,28.59
2019-06-27T11:52:47.239Z,28.65
2019-06-27T11:55:17.231Z,28.71
2019-06-27T11:57:46.783Z,28.75
2019-06-27T12:00:16.595Z,28.81
2019-06-27T12:02:46.232Z,28.86
2019-06-27T12:05:15.848Z,28.91
2019-06-27T12:07:45.346Z,28.93
2019-06-27T12:10:15.547Z,28.93
2019-06-27T12:12:45.055Z,28.93
2019-06-27T12:15:14.778Z,28.94
2019-06-27T12:17:44.310Z,28.96
2019-06-27T12:20:15.399Z,28.99
2019-06-27T12:22:44.866Z,29.01
2019-06-27T12:25:14.579Z,29.03
2019-06-27T12:27:44.115Z,29.05
2019-06-27T12:30:13.841Z,29.06
2019-06-27T12:32:51.766Z,29.05
2019-06-27T12:35:14.800Z,29.06
2019-06-27T12:37:44.318Z,29.06
2019-06-27T12:40:14.734Z,29.06
2019-06-27T12:42:44.237Z,29.06
2019-06-27T12:45:13.946Z,29.08
2019-06-27T12:47:43.566Z,29.10
2019-06-27T12:50:13.269Z,29.17
2019-06-27T12:52:42.804Z,29.20
2019-06-27T12:55:12.515Z,29.24
2019-06-27T12:57:42.085Z,29.30
2019-06-27T13:00:13.701Z,29.36
2019-06-27T13:03:02.552Z,29.41
2019-06-27T13:05:32.027Z,29.47
2019-06-27T13:08:01.532Z,29.50
2019-06-27T13:10:37.284Z,29.52
2019-06-27T13:13:06.847Z,29.55
2019-06-27T13:15:36.341Z,29.56
2019-06-27T13:18:05.828Z,29.56
2019-06-27T13:20:35.314Z,29.55
2019-06-27T13:23:04.874Z,29.46
2019-06-27T13:25:34.640Z,29.54
2019-06-27T13:28:04.203Z,29.54
2019-06-27T13:30:33.802Z,29.58
2019-06-27T13:33:03.641Z,29.60
2019-06-27T13:35:33.119Z,29.61
2019-06-27T13:38:02.655Z,29.63
2019-06-27T13:40:32.115Z,29.64
2019-06-27T13:43:01.639Z,29.66
2019-06-27T13:45:31.097Z,29.67
2019-06-27T13:48:00.623Z,29.70
2019-06-27T13:50:30.119Z,29.70
2019-06-27T13:52:59.605Z,29.69
2019-06-27T13:55:29.170Z,29.70
2019-06-27T13:57:58.686Z,29.69
2019-06-27T14:00:43.936Z,29.68
2019-06-27T14:03:13.738Z,29.69
2019-06-27T14:05:43.298Z,29.71
2019-06-27T14:08:12.927Z,29.70
2019-06-27T14:10:42.577Z,29.72
2019-06-27T14:13:12.051Z,29.73
2019-06-27T14:15:41.622Z,29.73
2019-06-27T14:18:11.247Z,29.73
2019-06-27T14:20:40.780Z,29.72
2019-06-27T14:23:10.335Z,29.70
2019-06-27T14:25:39.889Z,29.68
2019-06-27T14:28:11.135Z,29.66
2019-06-27T14:30:40.623Z,29.64
2019-06-27T14:33:10.126Z,29.62
2019-06-27T14:35:39.725Z,29.60
2019-06-27T14:38:09.190Z,29.59
2019-06-27T14:40:38.813Z,29.58
2019-06-27T14:43:08.309Z,29.58
2019-06-27T14:45:37.843Z,29.62
2019-06-27T14:48:07.361Z,29.63
2019-06-27T14:50:37.374Z,29.66
2019-06-27T14:53:06.834Z,29.68
2019-06-27T14:55:36.292Z,29.68
2019-06-27T14:58:05.835Z,29.69
2019-06-27T15:00:35.453Z,29.69
2019-06-27T15:03:05.575Z,29.67
2019-06-27T15:05:35.170Z,29.66
2019-06-27T15:08:04.795Z,29.66
2019-06-27T15:10:34.239Z,29.65
2019-06-27T15:13:03.722Z,29.64
2019-06-27T15:15:33.184Z,29.63
2019-06-27T15:18:02.654Z,29.64
2019-06-27T15:20:32.228Z,29.66
2019-06-27T15:23:01.731Z,29.66
2019-06-27T15:25:31.217Z,29.65
2019-06-27T15:28:00.745Z,29.63
2019-06-27T15:30:30.205Z,29.61
2019-06-27T15:32:59.719Z,29.58
2019-06-27T15:35:29.141Z,29.57
2019-06-27T15:37:58.637Z,29.54
2019-06-27T15:40:28.157Z,29.52
2019-06-27T15:42:57.657Z,29.51
2019-06-27T15:45:27.312Z,29.48
2019-06-27T15:47:56.754Z,29.47
2019-06-27T15:50:26.259Z,29.45
2019-06-27T15:52:55.749Z,29.44
2019-06-27T15:55:25.214Z,29.46
2019-06-27T15:57:54.660Z,29.47
2019-06-27T16:00:24.275Z,29.51
2019-06-27T16:02:53.914Z,29.55
2019-06-27T16:05:23.431Z,29.60
2019-06-27T16:07:52.957Z,29.71
2019-06-27T16:10:22.638Z,30.00
2019-06-27T16:12:52.183Z,30.46
2019-06-27T16:15:21.804Z,30.97
2019-06-27T16:17:51.304Z,31.51
2019-06-27T16:20:21.241Z,32.00
2019-06-27T16:22:50.728Z,32.49
2019-06-27T16:25:20.401Z,32.97
2019-06-27T16:27:49.968Z,33.42
2019-06-27T16:30:19.993Z,33.88
2019-06-27T16:32:49.494Z,34.26
2019-06-27T16:35:19.055Z,34.64
2019-06-27T16:37:48.682Z,35.05
2019-06-27T16:40:20.254Z,35.50
2019-06-27T16:42:49.755Z,35.90
2019-06-27T16:45:19.872Z,36.25
2019-06-27T16:47:49.340Z,36.55
2019-06-27T16:50:19.332Z,36.89
2019-06-27T16:52:48.813Z,37.17
2019-06-27T16:55:18.509Z,37.43
2019-06-27T16:57:48.204Z,37.67
2019-06-27T17:00:18.886Z,37.87
2019-06-27T17:02:48.406Z,37.98
2019-06-27T17:05:18.055Z,38.10
2019-06-27T17:07:47.603Z,38.21
2019-06-27T17:10:18.400Z,38.35
2019-06-27T17:12:47.976Z,38.52
2019-06-27T17:15:17.750Z,38.59
2019-06-27T17:17:47.236Z,38.58
2019-06-27T17:20:17.498Z,38.61
2019-06-27T17:22:46.983Z,38.67
2019-06-27T17:25:16.683Z,38.73
2019-06-27T17:27:46.157Z,38.75
2019-06-27T17:30:18.431Z,38.77
2019-06-27T17:32:48.053Z,38.81
2019-06-27T17:35:17.575Z,38.86
2019-06-27T17:37:47.071Z,38.93
2019-06-27T17:40:16.980Z,38.97
2019-06-27T17:42:46.525Z,38.95
2019-06-27T17:45:16.086Z,38.89
2019-06-27T17:47:45.657Z,38.84
2019-06-27T17:50:15.504Z,38.82
2019-06-27T17:52:45.083Z,38.76
2019-06-27T17:55:14.714Z,38.71
2019-06-27T17:57:47.101Z,38.58
2019-06-27T18:00:16.715Z,38.47
2019-06-27T18:02:46.275Z,38.35
2019-06-27T18:05:18.274Z,38.25
2019-06-27T18:07:47.295Z,38.16
2019-06-27T18:10:17.812Z,38.03
2019-06-27T18:12:47.377Z,37.94
2019-06-27T18:15:17.503Z,37.85
2019-06-27T18:17:47.131Z,37.77
2019-06-27T18:20:16.835Z,37.61
2019-06-27T18:22:46.313Z,37.34
2019-06-27T18:25:16.136Z,37.08
2019-06-27T18:27:45.701Z,36.79
2019-06-27T18:30:16.968Z,36.38
2019-06-27T18:32:46.482Z,35.82
2019-06-27T18:35:16.060Z,35.20
2019-06-27T18:37:45.704Z,34.54
2019-06-27T18:40:15.878Z,33.90
2019-06-27T18:42:45.436Z,33.38
2019-06-27T18:45:15.158Z,33.09
2019-06-27T18:47:44.652Z,32.99
2019-06-27T18:50:15.584Z,32.93
2019-06-27T18:52:45.062Z,32.77
2019-06-27T18:55:14.681Z,32.52
2019-06-27T18:57:44.224Z,32.18
2019-06-27T19:00:14.360Z,31.77
2019-06-27T19:02:43.981Z,31.30
2019-06-27T19:05:15.112Z,30.87
2019-06-27T19:07:46.271Z,30.45
2019-06-27T19:10:17.784Z,30.02
2019-06-27T19:12:47.301Z,29.63
2019-06-27T19:15:17.313Z,29.25
2019-06-27T19:17:46.890Z,28.87
2019-06-27T19:20:21.534Z,28.54
2019-06-27T19:23:08.526Z,28.22
2019-06-27T19:25:39.692Z,27.92
2019-06-27T19:28:10.799Z,27.61
2019-06-27T19:30:40.394Z,27.34
2019-06-27T19:33:09.880Z,27.08
2019-06-27T19:35:39.425Z,26.83
2019-06-27T19:38:09.015Z,26.61
2019-06-27T19:40:38.621Z,26.40
2019-06-27T19:43:08.216Z,26.18
2019-06-27T19:45:37.696Z,25.99
2019-06-27T19:48:07.382Z,25.80
2019-06-27T19:50:36.892Z,25.64
2019-06-27T19:53:06.516Z,25.47
2019-06-27T19:55:37.626Z,25.31
2019-06-27T19:58:07.276Z,25.16
2019-06-27T20:00:36.841Z,25.01
2019-06-27T20:03:06.466Z,24.86
2019-06-27T20:05:36.115Z,24.74
2019-06-27T20:08:18.345Z,24.63
2019-06-27T20:10:36.854Z,24.53
2019-06-27T20:13:06.784Z,24.43
2019-06-27T20:15:36.344Z,24.31
2019-06-27T20:18:05.845Z,24.21
2019-06-27T20:20:35.441Z,24.11
2019-06-27T20:23:05.038Z,24.00
2019-06-27T20:25:34.518Z,23.89
2019-06-27T20:28:04.125Z,23.78
2019-06-27T20:30:53.081Z,23.67
2019-06-27T20:33:22.694Z,23.57
2019-06-27T20:35:52.268Z,23.49
2019-06-27T20:38:34.331Z,23.40
2019-06-27T20:40:53.210Z,23.30
2019-06-27T20:43:22.761Z,23.22
2019-06-27T20:45:52.235Z,23.15
2019-06-27T20:48:21.719Z,23.08
2019-06-27T20:50:51.336Z,22.99
2019-06-27T20:53:20.841Z,22.91
2019-06-27T20:55:50.331Z,22.84
2019-06-27T20:58:19.813Z,22.76
2019-06-27T21:00:49.423Z,22.67
2019-06-27T21:03:18.975Z,22.60
2019-06-27T21:05:48.504Z,22.52
2019-06-27T21:08:18.097Z,22.42
2019-06-27T21:10:47.578Z,22.35
2019-06-27T21:13:17.158Z,22.25
2019-06-27T21:15:50.171Z,22.17
2019-06-27T21:18:17.877Z,22.09
2019-06-27T21:20:47.490Z,22.01
2019-06-27T21:23:16.989Z,21.94
2019-06-27T21:25:46.549Z,21.87
2019-06-27T21:28:16.028Z,21.79
2019-06-27T21:30:46.435Z,21.72
2019-06-27T21:33:15.898Z,21.64
2019-06-27T21:35:45.412Z,21.57
2019-06-27T21:38:14.904Z,21.49
2019-06-27T21:40:44.384Z,21.40
2019-06-27T21:43:14.008Z,21.34
2019-06-27T21:45:43.470Z,21.27
2019-06-27T21:48:12.962Z,21.18
2019-06-27T21:50:42.461Z,21.11
2019-06-27T21:53:11.924Z,21.05
2019-06-27T21:55:41.386Z,20.99
2019-06-27T21:58:10.880Z,20.92
2019-06-27T22:00:40.923Z,20.85
2019-06-27T22:03:10.647Z,20.79
2019-06-27T22:05:40.635Z,20.72
2019-06-27T22:08:10.219Z,20.66
2019-06-27T22:10:39.857Z,20.61
2019-06-27T22:13:09.364Z,20.55
2019-06-27T22:15:38.913Z,20.48
2019-06-27T22:18:08.479Z,20.41
2019-06-27T22:20:39.699Z,20.37
2019-06-27T22:23:09.355Z,20.30
2019-06-27T22:25:40.871Z,20.24
2019-06-27T22:28:10.202Z,20.21
2019-06-27T22:30:39.739Z,20.14
2019-06-27T22:33:09.248Z,20.09
2019-06-27T22:35:38.717Z,20.05
2019-06-27T22:38:25.604Z,19.99
2019-06-27T22:41:14.090Z,19.93
2019-06-27T22:44:01.293Z,19.87
2019-06-27T22:46:48.912Z,19.80
2019-06-27T22:49:18.570Z,19.71
2019-06-27T22:51:56.663Z,19.62
2019-06-27T22:54:27.786Z,19.55
2019-06-27T22:56:57.329Z,19.46
2019-06-27T22:59:26.814Z,19.40
2019-06-27T23:01:56.291Z,19.32
2019-06-27T23:04:25.834Z,19.27
2019-06-27T23:06:55.375Z,19.18
2019-06-27T23:09:24.943Z,19.15
2019-06-27T23:11:54.480Z,19.10
2019-06-27T23:14:24.029Z,19.05
2019-06-27T23:16:53.511Z,19.01
2019-06-27T23:19:23.091Z,18.99
2019-06-27T23:21:52.571Z,18.96
2019-06-27T23:24:22.034Z,18.92
2019-06-27T23:26:51.522Z,18.88
2019-06-27T23:29:21.077Z,18.86
2019-06-27T23:31:50.648Z,18.83
2019-06-27T23:34:20.121Z,18.79
2019-06-27T23:36:49.682Z,18.77
2019-06-27T23:39:19.140Z,18.75
2019-06-27T23:41:48.676Z,18.72
2019-06-27T23:44:18.237Z,18.68
2019-06-27T23:46:47.775Z,18.66
2019-06-27T23:49:17.257Z,18.63
2019-06-27T23:51:46.721Z,18.59
2019-06-27T23:54:16.257Z,18.56
2019-06-27T23:56:45.729Z,18.53
2019-06-27T23:59:15.219Z,18.50
